Time;durP1;ratioP1;P1;durP2;ratioP2;P2;SDS_P1;SDS_P2;PMS_P1;PMS_P2;Temp;Humidity;BMP_temperature;BMP_pressure;BME280_temperature;BME280_humidity;BME280_pressure;Samples;Min_cycle;Max_cycle;Signal;HPM_P1;HPM_P2
2022/08/19 00:01:52;;;;;;;9.63;7.95;;;;;;;24.10;100.00;98471.81;4339516;33;20040;-70
2022/08/19 00:04:22;;;;;;;11.15;8.45;;;;;;;24.11;100.00;98463.22;4308041;33;20037;-73
2022/08/19 00:06:48;;;;;;;12.15;7.30;;;;;;;23.91;100.00;98423.81;4309684;33;20080;-70
2022/08/19 00:09:23;;;;;;;10.95;7.20;;;;;;;24.28;100.00;98456.59;4313159;33;20532;-69
2022/08/19 00:11:53;;;;;;;12.40;6.87;;;;;;;24.17;100.00;98447.25;4324250;33;20036;-70
2022/08/19 00:14:20;;;;;;;13.25;7.45;;;;;;;24.14;100.00;98433.41;4322343;33;20029;-70
2022/08/19 00:16:48;;;;;;;12.85;7.65;;;;;;;23.82;100.00;98412.19;4323899;33;20373;-70
2022/08/19 00:19:16;;;;;;;15.05;7.70;;;;;;;23.93;100.00;98407.78;4339901;33;20074;-71
2022/08/19 00:21:43;;;;;;;14.32;7.43;;;;;;;24.05;100.00;98404.16;4309312;33;20068;-71
2022/08/19 00:24:11;;;;;;;13.57;7.72;;;;;;;24.13;100.00;98427.12;4293858;33;20070;-73
2022/08/19 00:26:38;;;;;;;15.15;7.55;;;;;;;24.24;100.00;98433.69;4282113;33;20069;-70
2022/08/19 00:29:07;;;;;;;12.90;7.28;;;;;;;24.23;100.00;98437.56;4267198;33;20068;-70
2022/08/19 00:31:34;;;;;;;10.55;7.35;;;;;;;24.42;100.00;98427.81;4265705;33;20371;-70
2022/08/19 00:34:01;;;;;;;10.13;7.28;;;;;;;24.09;100.00;98377.53;4266910;33;20038;-70
2022/08/19 00:36:29;;;;;;;9.88;7.47;;;;;;;24.14;100.00;98376.47;4263934;33;20332;-73
2022/08/19 00:38:56;;;;;;;17.15;7.07;;;;;;;24.19;100.00;98398.19;4280782;33;20857;-69
2022/08/19 00:41:24;;;;;;;7.78;6.85;;;;;;;24.24;100.00;98397.94;4266344;33;20398;-70
2022/08/19 00:44:21;;;;;;;12.55;7.72;;;;;;;24.42;100.00;98422.31;4279437;33;20038;-71
2022/08/19 00:46:50;;;;;;;8.15;6.60;;;;;;;24.47;100.00;98424.78;4281033;33;20046;-70
2022/08/19 00:49:22;;;;;;;7.78;6.93;;;;;;;24.38;100.00;98421.41;4295622;33;20045;-70
2022/08/19 00:51:54;;;;;;;11.90;7.93;;;;;;;24.25;100.00;98427.03;4298240;33;20099;-70
2022/08/19 00:54:21;;;;;;;;;;;;;;;24.47;100.00;98433.03;4286367;33;20073;-70
2022/08/19 00:56:49;;;;;;;7.97;7.18;;;;;;;24.28;100.00;98437.34;4325147;33;19932;-71
2022/08/19 00:59:17;;;;;;;15.68;7.68;;;;;;;24.23;100.00;98442.28;4339723;32;20074;-71
2022/08/19 01:01:45;;;;;;;11.02;7.25;;;;;;;24.19;100.00;98447.72;4348054;32;20110;-70
2022/08/19 01:04:12;;;;;;;10.98;7.05;;;;;;;23.75;100.00;98406.47;4337758;33;20062;-74
2022/08/19 01:06:41;;;;;;;10.88;6.97;;;;;;;24.18;100.00;98440.59;4337771;33;20069;-70
2022/08/19 01:09:08;;;;;;;14.70;7.50;;;;;;;24.26;100.00;98447.88;4345348;32;20073;-70
2022/08/19 01:11:44;;;;;;;13.88;7.87;;;;;;;24.11;100.00;98412.94;4338992;33;20062;-70
2022/08/19 01:14:12;;;;;;;11.68;7.07;;;;;;;23.76;100.00;98408.87;4336482;33;20078;-70
2022/08/19 01:16:40;;;;;;;11.45;7.60;;;;;;;24.00;100.00;98401.66;4339257;33;20123;-71
2022/08/19 01:19:24;;;;;;;19.02;8.07;;;;;;;24.18;100.00;98446.09;4341397;33;20794;-71
2022/08/19 01:22:23;;;;;;;13.10;7.65;;;;;;;24.01;100.00;98406.00;4318195;33;20041;-71
2022/08/19 01:24:51;;;;;;;11.55;7.60;;;;;;;24.10;100.00;98438.81;4318124;33;20427;-71
2022/08/19 01:27:18;;;;;;;9.82;7.45;;;;;;;23.90;100.00;98408.50;4321501;33;20084;-75
2022/08/19 01:29:45;;;;;;;13.00;8.15;;;;;;;24.02;100.00;98409.56;4280363;33;20070;-72
2022/08/19 01:32:15;;;;;;;15.15;7.82;;;;;;;24.01;100.00;98435.44;4251807;33;20029;-72
2022/08/19 01:34:46;;;;;;;9.63;7.60;;;;;;;23.96;100.00;98433.75;4280057;33;20052;-71
2022/08/19 01:37:14;;;;;;;9.15;7.95;;;;;;;23.64;100.00;98386.16;4280811;33;20059;-75
2022/08/19 01:39:41;;;;;;;11.38;7.78;;;;;;;23.99;100.00;98426.75;4279975;33;20048;-71
2022/08/19 01:42:11;;;;;;;15.10;7.75;;;;;;;23.87;100.00;98381.72;4281019;33;20169;-71
2022/08/19 01:44:43;;;;;;;19.20;8.88;;;;;;;24.07;100.00;98410.06;4280996;33;20177;-71
2022/08/19 01:47:10;;;;;;;12.35;7.43;;;;;;;23.64;100.00;98383.44;4278223;33;20501;-74
2022/08/19 01:49:37;;;;;;;14.02;8.20;;;;;;;23.83;100.00;98369.81;4274718;33;20041;-71
2022/08/19 01:52:05;;;;;;;16.87;8.52;;;;;;;23.84;100.00;98398.91;4280099;33;20030;-71
2022/08/19 01:54:33;;;;;;;10.18;7.90;;;;;;;23.60;100.00;98361.34;4295565;33;20194;-71
2022/08/19 01:57:05;;;;;;;15.27;8.15;;;;;;;23.64;100.00;98355.94;4295372;33;20134;-71
2022/08/19 01:59:32;;;;;;;9.90;8.05;;;;;;;23.97;100.00;98385.87;4306596;33;20123;-72
2022/08/19 02:01:59;;;;;;;11.77;7.70;;;;;;;23.61;100.00;98393.16;4351475;32;20047;-71
2022/08/19 02:04:26;;;;;;;10.38;7.82;;;;;;;23.70;100.00;98371.03;4389107;32;20057;-71
2022/08/19 02:06:52;;;;;;;10.18;7.22;;;;;;;23.88;100.00;98377.78;4383581;32;20035;-71
2022/08/19 02:09:19;;;;;;;7.72;6.78;;;;;;;23.86;100.00;98349.88;4382624;32;20392;-71
2022/08/19 02:11:45;;;;;;;10.40;6.93;;;;;;;24.06;100.00;98382.94;4383741;32;20027;-73
2022/08/19 02:14:11;;;;;;;11.93;7.82;;;;;;;24.11;100.00;98379.94;4385494;32;20077;-71
2022/08/19 02:16:39;;;;;;;12.90;7.40;;;;;;;24.13;100.00;98377.63;4371768;32;20112;-71
2022/08/19 02:19:06;;;;;;;10.57;7.35;;;;;;;24.14;100.00;98379.22;4352003;32;20085;-71
2022/08/19 02:21:33;;;;;;;10.48;7.05;;;;;;;23.83;100.00;98336.81;4351988;32;20097;-74
2022/08/19 02:24:00;;;;;;;15.02;7.75;;;;;;;24.11;100.00;98368.94;4336999;33;20070;-71
2022/08/19 02:26:27;;;;;;;12.75;7.60;;;;;;;23.74;100.00;98319.69;4339043;33;20077;-71
2022/08/19 02:28:54;;;;;;;10.30;6.80;;;;;;;23.82;100.00;98340.72;4332231;33;20045;-71
2022/08/19 02:31:23;;;;;;;12.95;7.07;;;;;;;23.98;100.00;98381.16;4323985;33;20062;-71
2022/08/19 02:33:52;;;;;;;9.02;7.40;;;;;;;23.72;100.00;98349.47;4321614;33;20116;-72
2022/08/19 02:36:18;;;;;;;11.30;7.15;;;;;;;24.01;100.00;98383.22;4324297;33;20114;-70
2022/08/19 02:38:46;;;;;;;13.30;7.47;;;;;;;23.80;100.00;98342.22;4337028;33;20053;-70
2022/08/19 02:41:21;;;;;;;10.57;7.05;;;;;;;23.78;100.00;98377.50;4338623;33;20065;-70
2022/08/19 02:43:49;;;;;;;10.52;7.32;;;;;;;23.76;100.00;98364.13;4337694;33;20097;-73
2022/08/19 02:46:20;;;;;;;11.48;7.40;;;;;;;23.60;100.00;98327.56;4322987;33;20063;-73
2022/08/19 02:48:56;;;;;;;11.32;6.30;;;;;;;23.73;100.00;98373.06;4318932;33;20420;-73
2022/08/19 02:51:27;;;;;;;9.10;7.05;;;;;;;23.93;100.00;98369.28;4351758;32;20044;-71
2022/08/19 02:53:54;;;;;;;8.57;7.07;;;;;;;23.98;100.00;98354.50;4312278;33;20055;-71
2022/08/19 02:56:21;;;;;;;9.88;6.57;;;;;;;23.44;100.00;98322.06;4309284;33;20049;-70
2022/08/19 02:58:48;;;;;;;11.40;7.32;;;;;;;23.75;100.00;98324.03;4309474;33;20077;-71
2022/08/19 03:01:24;;;;;;;10.23;6.97;;;;;;;23.64;100.00;98318.25;4323695;33;20397;-71
2022/08/19 03:03:51;;;;;;;12.63;7.35;;;;;;;23.73;100.00;98351.88;4334580;33;20175;-71
2022/08/19 03:06:19;;;;;;;11.52;7.82;;;;;;;23.74;100.00;98356.22;4322357;33;20033;-71
2022/08/19 03:08:46;;;;;;;9.90;7.85;;;;;;;23.61;100.00;98329.16;4319954;33;20034;-71
2022/08/19 03:11:19;;;;;;;12.63;7.47;;;;;;;23.64;100.00;98364.19;4307653;33;20055;-71
2022/08/19 03:13:48;;;;;;;13.50;6.93;;;;;;;23.58;100.00;98323.25;4309466;33;20032;-71
2022/08/19 03:16:16;;;;;;;11.18;7.12;;;;;;;23.75;100.00;98373.50;4323352;33;20029;-70
2022/08/19 03:18:42;;;;;;;11.38;7.40;;;;;;;23.47;100.00;98335.91;4320966;33;20021;-71
2022/08/19 03:21:08;;;;;;;12.37;7.18;;;;;;;23.36;100.00;98323.84;4323159;33;20055;-70
2022/08/19 03:23:35;;;;;;;10.18;7.60;;;;;;;23.42;100.00;98333.41;4324756;33;20049;-73
2022/08/19 03:26:05;;;;;;;15.57;7.10;;;;;;;23.74;100.00;98369.16;4324977;33;20049;-70
2022/08/19 03:28:33;;;;;;;13.50;7.32;;;;;;;23.72;100.00;98371.47;4325874;33;20028;-71
2022/08/19 03:31:07;;;;;;;12.55;8.05;;;;;;;23.66;100.00;98365.44;4325806;33;20058;-70
2022/08/19 03:33:34;;;;;;;12.13;8.07;;;;;;;23.58;100.00;98369.94;4324073;33;20058;-71
2022/08/19 03:36:07;;;;;;;14.43;7.70;;;;;;;23.64;100.00;98361.44;4312370;33;20048;-70
2022/08/19 03:38:35;;;;;;;12.50;8.70;;;;;;;23.64;100.00;98364.19;4310372;33;20045;-70
2022/08/19 03:41:06;;;;;;;12.23;7.12;;;;;;;23.34;100.00;98326.13;4310822;33;20190;-70
2022/08/19 03:43:34;;;;;;;9.95;7.47;;;;;;;23.58;100.00;98331.47;4307458;33;20048;-70
2022/08/19 03:46:03;;;;;;;12.55;7.50;;;;;;;23.47;100.00;98335.91;4324320;33;20070;-71
2022/08/19 03:48:31;;;;;;;11.60;8.32;;;;;;;23.39;100.00;98339.59;4353322;32;20036;-70
2022/08/19 03:50:59;;;;;;;10.95;6.90;;;;;;;23.51;100.00;98328.53;4345563;32;20044;-70
2022/08/19 03:53:29;;;;;;;12.07;7.50;;;;;;;23.80;100.00;98365.00;4385466;32;20031;-71
2022/08/19 03:55:57;;;;;;;11.60;7.68;;;;;;;23.46;100.00;98367.25;4387267;32;20065;-70
2022/08/19 03:58:23;;;;;;;15.52;7.37;;;;;;;23.39;100.00;98369.81;4387450;32;20039;-71
2022/08/19 04:00:57;;;;;;;28.12;8.30;;;;;;;23.29;100.00;98334.63;4389722;32;20055;-73
2022/08/19 04:03:26;;;;;;;15.48;7.43;;;;;;;23.26;100.00;98324.34;4399967;32;20050;-71
2022/08/19 04:05:53;;;;;;;17.80;8.13;;;;;;;23.53;100.00;98383.94;4402090;32;20051;-71
2022/08/19 04:08:20;;;;;;;11.95;7.55;;;;;;;23.14;100.00;98344.44;4396431;32;20509;-72
2022/08/19 04:10:47;;;;;;;13.48;7.72;;;;;;;23.19;100.00;98346.91;4400351;32;20057;-71
2022/08/19 04:13:18;;;;;;;13.20;8.00;;;;;;;23.62;100.00;98380.25;4398371;32;20064;-74
2022/08/19 04:15:46;;;;;;;24.50;8.05;;;;;;;23.51;100.00;98375.25;4399832;32;20062;-71
2022/08/19 04:18:13;;;;;;;10.43;8.77;;;;;;;23.64;100.00;98345.75;4369049;32;20039;-71
2022/08/19 04:20:47;;;;;;;10.85;7.60;;;;;;;23.46;100.00;98355.47;4369885;32;20510;-71
2022/08/19 04:23:14;;;;;;;17.92;8.68;;;;;;;23.72;100.00;98393.44;4358309;32;20048;-72
2022/08/19 04:25:43;;;;;;;15.32;8.38;;;;;;;23.62;100.00;98392.03;4353869;32;20074;-72
2022/08/19 04:28:12;;;;;;;14.98;8.23;;;;;;;23.73;100.00;98392.31;4344428;32;20079;-70
2022/08/19 04:30:45;;;;;;;8.43;6.70;;;;;;;23.57;100.00;98362.84;4354574;32;20074;-75
2022/08/19 04:33:13;;;;;;;17.62;7.95;;;;;;;23.86;100.00;98347.13;4352291;32;20057;-76
2022/08/19 04:35:42;;;;;;;11.07;7.40;;;;;;;23.72;100.00;98368.72;4323281;33;20114;-69
2022/08/19 04:38:09;;;;;;;9.88;7.50;;;;;;;23.75;100.00;98362.50;4298960;33;20048;-70
2022/08/19 04:43:31;;;;;;;17.52;7.53;;;;;;;23.83;100.00;98334.06;4310445;33;20056;-70
2022/08/19 04:45:58;;;;;;;18.87;7.43;;;;;;;23.65;100.00;98319.88;4320367;33;20363;-70
2022/08/19 04:48:26;;;;;;;14.45;6.75;;;;;;;24.02;100.00;98360.84;4329200;32;20029;-70
2022/08/19 04:50:58;;;;;;;11.95;6.85;;;;;;;24.18;100.00;98358.09;4352186;32;20429;-69
2022/08/19 04:53:28;;;;;;;24.90;9.05;;;;;;;24.09;100.00;98365.72;4332310;33;20051;-70
2022/08/19 04:55:56;;;;;;;16.27;8.60;;;;;;;24.16;100.00;98354.91;4325631;33;20051;-70
2022/08/19 04:58:24;;;;;;;15.02;8.00;;;;;;;24.12;100.00;98321.00;4328393;33;20075;-76
2022/08/19 05:00:51;;;;;;;15.27;7.25;;;;;;;24.33;100.00;98358.44;4322476;33;20304;-70
2022/08/19 05:03:19;;;;;;;13.13;7.20;;;;;;;24.30;100.00;98368.22;4324861;33;20063;-73
2022/08/19 05:05:48;;;;;;;12.40;6.95;;;;;;;24.17;100.00;98373.00;4333456;32;20070;-70
2022/08/19 05:08:19;;;;;;;20.83;7.65;;;;;;;24.37;100.00;98381.31;4355553;32;20029;-70
2022/08/19 05:10:47;;;;;;;;;;;;;;;24.06;100.00;98370.00;4352563;32;20061;-72
2022/08/19 05:13:16;;;;;;;16.55;7.47;;;;;;;24.13;100.00;98383.13;4336207;33;19939;-72
2022/08/19 05:15:43;;;;;;;10.57;6.87;;;;;;;24.29;100.00;98375.66;4337181;33;20048;-72
2022/08/19 05:23:41;;;;;;;11.35;7.57;;;;;;;24.54;100.00;98380.94;4340639;33;20053;-71
2022/08/19 05:26:09;;;;;;;12.43;6.95;;;;;;;24.40;100.00;98377.87;4360014;32;20065;-72
2022/08/19 05:28:35;;;;;;;19.33;7.28;;;;;;;24.92;100.00;98390.44;4368498;32;20081;-71
2022/08/19 05:31:02;;;;;;;12.52;6.22;;;;;;;24.84;100.00;98388.69;4367830;32;20050;-69
2022/08/19 05:33:28;;;;;;;12.10;6.62;;;;;;;24.62;100.00;98346.94;4353970;32;20054;-71
2022/08/19 05:35:55;;;;;;;18.40;7.18;;;;;;;24.85;100.00;98379.28;4335837;33;20362;-74
2022/08/19 05:38:22;;;;;;;16.50;6.72;;;;;;;24.88;100.00;98342.75;4339314;32;20051;-71
2022/08/19 05:40:49;;;;;;;13.75;6.85;;;;;;;25.08;100.00;98378.56;4337895;33;20028;-71
2022/08/19 05:43:15;;;;;;;9.32;6.68;;;;;;;25.14;100.00;98393.63;4338480;33;20044;-71
2022/08/19 05:45:43;;;;;;;13.57;7.35;;;;;;;24.95;100.00;98373.19;4338387;33;20085;-70
2022/08/19 05:48:13;;;;;;;8.05;6.87;;;;;;;25.26;100.00;98395.44;4336755;33;20095;-73
2022/08/19 05:50:41;;;;;;;15.00;6.50;;;;;;;24.80;100.00;98349.28;4345060;32;20094;-70
2022/08/19 05:53:08;;;;;;;9.57;7.07;;;;;;;25.00;100.00;98359.16;4357737;32;20054;-71
2022/08/19 05:55:37;;;;;;;16.10;6.85;;;;;;;24.91;100.00;98369.56;4358618;32;20095;-72
2022/08/19 05:58:07;;;;;;;18.23;6.93;;;;;;;24.84;100.00;98361.16;4360517;32;20035;-70
2022/08/19 06:00:43;;;;;;;12.73;6.12;;;;;;;25.09;100.00;98352.63;4360289;32;20111;-70
2022/08/19 06:03:10;;;;;;;19.45;6.78;;;;;;;25.09;100.00;98349.88;4363115;32;20078;-70
2022/08/19 06:05:36;;;;;;;20.23;5.97;;;;;;;25.59;100.00;98385.84;4315868;33;20088;-71
2022/08/19 06:08:04;;;;;;;19.10;6.85;;;;;;;25.33;100.00;98379.88;4332080;32;20028;-79
2022/08/19 06:10:30;;;;;;;16.55;6.35;;;;;;;25.42;100.00;98362.31;4334832;32;20036;-70
2022/08/19 06:12:57;;;;;;;10.73;7.35;;;;;;;25.46;100.00;98385.22;4350572;32;20039;-71
2022/08/19 06:15:25;;;;;;;24.77;7.15;;;;;;;25.36;100.00;98387.41;4349774;32;20073;-72
2022/08/19 06:17:51;;;;;;;7.90;6.18;;;;;;;25.65;100.00;98393.47;4351850;32;20035;-78
2022/08/19 06:20:18;;;;;;;14.77;6.60;;;;;;;25.70;100.00;98406.97;4346377;32;20032;-73
2022/08/19 06:22:49;;;;;;;12.52;6.50;;;;;;;25.76;100.00;98406.66;4350815;32;20047;-72
2022/08/19 06:25:16;;;;;;;14.77;6.33;;;;;;;25.58;100.00;98418.16;4351998;32;20054;-74
2022/08/19 06:27:43;;;;;;;12.45;7.35;;;;;;;25.77;100.00;98411.00;4350418;32;20031;-71
2022/08/19 06:30:11;;;;;;;11.30;7.07;;;;;;;25.65;100.00;98421.03;4347940;33;20073;-71
2022/08/19 06:32:38;;;;;;;28.45;7.12;;;;;;;25.62;100.00;98394.19;4350217;33;20051;-70
2022/08/19 06:35:05;;;;;;;13.70;6.37;;;;;;;26.18;100.00;98417.63;4351466;33;20181;-72
2022/08/19 06:37:31;;;;;;;11.93;7.07;;;;;;;26.24;100.00;98413.41;4363383;32;20031;-69
2022/08/19 06:39:58;;;;;;;14.20;7.68;;;;;;;26.02;100.00;98403.97;4365224;32;20142;-77
2022/08/19 06:42:24;;;;;;;8.07;6.87;;;;;;;25.80;100.00;98382.69;4370345;32;20036;-69
2022/08/19 06:44:51;;;;;;;13.88;6.55;;;;;;;26.12;100.00;98387.97;4382727;32;20035;-69
2022/08/19 06:47:20;;;;;;;15.20;7.03;;;;;;;26.50;100.00;98408.28;4389572;32;20043;-71
2022/08/19 06:49:46;;;;;;;14.60;7.35;;;;;;;26.39;100.00;98397.06;4383566;32;20192;-77
2022/08/19 06:52:14;;;;;;;14.90;6.90;;;;;;;26.64;100.00;98398.25;4380619;32;20064;-71
2022/08/19 06:54:44;;;;;;;17.20;6.95;;;;;;;26.56;100.00;98388.25;4383561;32;20052;-70
2022/08/19 06:57:14;;;;;;;13.38;6.28;;;;;;;26.55;100.00;98383.94;4367913;32;20087;-70
2022/08/19 06:59:41;;;;;;;18.67;8.18;;;;;;;26.26;100.00;98349.56;4358567;32;20442;-70
2022/08/19 07:02:07;;;;;;;10.55;7.10;;;;;;;26.48;100.00;98388.53;4367659;32;20032;-70
2022/08/19 07:04:35;;;;;;;13.88;6.50;;;;;;;26.44;100.00;98383.78;4370318;32;20062;-70
2022/08/19 07:07:11;;;;;;;12.93;6.62;;;;;;;26.35;100.00;98358.41;4376194;32;20084;-69
2022/08/19 07:09:41;;;;;;;12.45;7.50;;;;;;;26.47;100.00;98393.28;4380872;32;20057;-70
2022/08/19 07:12:10;;;;;;;14.68;6.22;;;;;;;26.74;100.00;98402.38;4381296;32;20204;-69
2022/08/19 07:14:38;;;;;;;11.50;6.90;;;;;;;26.44;100.00;98400.31;4383277;32;20061;-70
2022/08/19 07:17:10;;;;;;;14.48;7.22;;;;;;;26.48;100.00;98416.16;4384481;32;20031;-70
2022/08/19 07:19:39;;;;;;;22.00;7.57;;;;;;;26.52;100.00;98419.75;4369995;32;20034;-77
2022/08/19 07:22:07;;;;;;;19.10;7.72;;;;;;;26.55;100.00;98383.13;4363424;32;20032;-69
2022/08/19 07:24:35;;;;;;;15.13;7.80;;;;;;;26.39;100.00;98403.41;4366461;32;20046;-68
2022/08/19 07:27:04;;;;;;;16.10;6.93;;;;;;;26.23;100.00;98388.94;4313746;33;20057;-69
2022/08/19 07:29:34;;;;;;;13.68;7.15;;;;;;;26.49;100.00;98393.69;4317690;33;20071;-78
2022/08/19 07:32:01;;;;;;;23.67;7.68;;;;;;;26.36;100.00;98371.03;4289345;33;20574;-69
2022/08/19 07:34:30;;;;;;;15.02;7.40;;;;;;;26.35;100.00;98376.91;4267692;33;20084;-69
2022/08/19 07:36:57;;;;;;;9.32;6.35;;;;;;;26.60;100.00;98413.19;4267895;33;20034;-69
2022/08/19 07:39:28;;;;;;;13.73;7.03;;;;;;;26.82;100.00;98420.63;4282056;33;20386;-77
2022/08/19 07:41:57;;;;;;;11.07;6.78;;;;;;;26.88;100.00;98418.31;4269825;33;20192;-69
2022/08/19 07:44:24;;;;;;;13.02;6.93;;;;;;;26.85;100.00;98401.72;4268641;33;20038;-69
2022/08/19 07:46:55;;;;;;;12.20;7.72;;;;;;;27.15;100.00;98421.84;4254785;33;20395;-68
2022/08/19 07:49:22;;;;;;;;;;;;;;;26.26;100.00;98377.16;4265596;33;20046;-70
2022/08/19 07:51:52;;;;;;;14.52;7.25;;;;;;;26.58;100.00;98432.06;4259704;33;19971;-70
2022/08/19 07:54:20;;;;;;;13.62;8.18;;;;;;;26.89;100.00;98435.72;4276344;33;20055;-69
2022/08/19 07:56:47;;;;;;;15.73;7.95;;;;;;;26.87;100.00;98443.56;4267275;33;20060;-70
2022/08/19 07:59:13;;;;;;;15.18;7.47;;;;;;;26.98;100.00;98438.97;4293343;33;20447;-70
2022/08/19 08:01:39;;;;;;;11.57;6.57;;;;;;;27.02;100.00;98400.37;4291232;33;20079;-77
2022/08/19 08:09:42;;;;;;;13.95;6.40;;;;;;;26.85;100.00;98429.31;4336134;33;21467;-69
2022/08/19 08:12:23;;;;;;;18.77;7.12;;;;;;;27.36;100.00;98431.59;4335546;33;20025;-70
2022/08/19 08:14:56;;;;;;;18.30;7.10;;;;;;;27.53;100.00;98431.00;4336252;33;20124;-70
2022/08/19 08:17:25;;;;;;;25.15;8.02;;;;;;;27.40;100.00;98443.50;4349830;32;20074;-70
2022/08/19 08:19:53;;;;;;;10.65;7.35;;;;;;;27.35;100.00;98438.31;4336715;33;20048;-68
2022/08/19 08:25:13;;;;;;;21.62;7.20;;;;;;;27.23;100.00;98410.88;4351126;32;20898;-68
2022/08/19 08:27:41;;;;;;;11.43;6.40;;;;;;;27.46;100.00;98452.22;4353123;32;20036;-69
2022/08/19 08:30:17;;;;;;;14.32;7.03;;;;;;;27.69;100.00;98430.00;4351862;32;20062;-68
2022/08/19 08:32:43;;;;;;;17.25;7.05;;;;;;;28.02;100.00;98459.59;4351604;32;20036;-69
2022/08/19 08:35:13;;;;;;;21.08;8.73;;;;;;;28.42;100.00;98469.03;4350455;32;20166;-68
2022/08/19 08:37:40;;;;;;;13.07;7.53;;;;;;;28.34;100.00;98466.59;4354878;32;20113;-70
2022/08/19 08:40:35;;;;;;;17.45;9.38;;;;;;;28.25;100.00;98436.47;4355631;32;20070;-69
2022/08/19 08:43:26;;;;;;;9.35;7.10;;;;;;;28.73;100.00;98466.12;4339785;32;20028;-68
2022/08/19 08:46:04;;;;;;;;;;;;;;;28.75;100.00;98466.53;4334578;33;20040;-74
2022/08/19 08:48:33;;;;;;;23.12;7.30;;;;;;;28.82;100.00;98458.28;4324059;33;19946;-70
2022/08/19 08:51:04;;;;;;;13.82;6.97;;;;;;;28.84;100.00;98455.91;4319968;33;20083;-69
2022/08/19 08:53:31;;;;;;;9.77;6.40;;;;;;;28.49;100.00;98457.22;4299940;33;20111;-73
2022/08/19 08:56:01;;;;;;;14.52;7.30;;;;;;;28.51;100.00;98415.31;4264427;33;20083;-69
2022/08/19 08:58:47;;;;;;;12.43;6.50;;;;;;;28.72;100.00;98428.53;4305645;33;20044;-69
2022/08/19 09:01:15;;;;;;;14.35;7.97;;;;;;;28.58;100.00;98424.50;4304782;33;20041;-69
2022/08/19 09:03:42;;;;;;;7.97;6.65;;;;;;;28.58;100.00;98438.34;4302365;33;20078;-71
2022/08/19 09:06:21;;;;;;;14.68;6.30;;;;;;;28.86;100.00;98470.16;4308823;33;20075;-69
2022/08/19 09:09:04;;;;;;;10.05;7.22;;;;;;;28.94;100.00;98469.03;4308194;33;20059;-71
2022/08/19 09:12:00;;;;;;;15.32;6.78;;;;;;;28.51;100.00;98465.91;4309155;33;20068;-70
2022/08/19 09:14:37;;;;;;;16.67;6.35;;;;;;;29.17;100.00;98446.59;4304297;33;20033;-69
2022/08/19 09:17:07;;;;;;;12.77;7.37;;;;;;;29.24;100.00;98462.47;4298596;33;20034;-75
2022/08/19 09:20:03;;;;;;;22.60;6.87;;;;;;;28.91;100.00;98466.22;4295083;33;20057;-69
2022/08/19 09:22:30;;;;;;;15.73;6.95;;;;;;;29.23;100.00;98466.47;4309018;33;20084;-73
2022/08/19 09:24:57;;;;;;;8.90;6.85;;;;;;;29.44;100.00;98437.19;4327555;33;20043;-70
2022/08/19 09:27:24;;;;;;;15.20;7.07;;;;;;;29.52;100.00;98466.56;4367540;32;20032;-69
2022/08/19 09:29:53;;;;;;;10.40;6.37;;;;;;;29.63;100.00;98439.66;4385451;32;20068;-69
2022/08/19 09:32:27;;;;;;;12.48;6.43;;;;;;;29.97;100.00;98469.09;4384143;32;20051;-73
2022/08/19 09:34:54;;;;;;;12.10;6.62;;;;;;;30.05;100.00;98462.37;4392937;32;20060;-71
2022/08/19 09:37:22;;;;;;;9.63;6.47;;;;;;;29.94;100.00;98459.56;4382345;32;20043;-71
2022/08/19 09:39:48;;;;;;;13.65;7.18;;;;;;;30.02;100.00;98463.94;4385020;32;20440;-70
2022/08/19 09:42:14;;;;;;;15.27;7.55;;;;;;;29.97;100.00;98441.34;4369626;32;20364;-70
2022/08/19 09:44:41;;;;;;;11.07;6.75;;;;;;;29.77;100.00;98465.84;4366796;32;20039;-72
2022/08/19 09:47:11;;;;;;;15.68;7.25;;;;;;;30.23;100.00;98463.16;4367256;32;20047;-70
2022/08/19 09:49:38;;;;;;;23.83;6.97;;;;;;;30.14;100.00;98453.63;4367937;32;20027;-69
2022/08/19 09:52:08;;;;;;;11.85;7.20;;;;;;;30.36;100.00;98446.09;4369727;32;20820;-69
2022/08/19 09:54:41;;;;;;;13.77;7.07;;;;;;;30.03;100.00;98450.88;4338138;32;20083;-71
2022/08/19 09:57:07;;;;;;;15.80;7.55;;;;;;;30.27;100.00;98449.28;4338161;33;20036;-69
2022/08/19 09:59:34;;;;;;;15.45;6.93;;;;;;;30.38;100.00;98461.22;4338101;33;20062;-69
2022/08/19 10:02:00;;;;;;;14.68;7.65;;;;;;;30.43;100.00;98424.72;4341145;32;20428;-69
2022/08/19 10:05:47;;;;;;;17.90;7.12;;;;;;;30.44;100.00;98439.37;4351288;32;20039;-68
2022/08/19 10:07:14;;;;;;;25.85;7.47;;;;;;;30.71;100.00;98461.97;4348474;32;20536;-68
2022/08/19 10:09:41;;;;;;;11.63;7.37;;;;;;;30.57;100.00;98423.91;4348768;32;20172;-68
2022/08/19 10:12:08;;;;;;;12.98;6.20;;;;;;;30.65;100.00;98469.16;4352255;32;20331;-69
2022/08/19 10:14:35;;;;;;;22.08;6.68;;;;;;;30.80;100.00;98464.34;4347872;32;20069;-76
2022/08/19 10:17:03;;;;;;;18.20;6.62;;;;;;;30.73;100.00;98454.06;4352463;32;20256;-68
2022/08/19 10:19:35;;;;;;;18.85;7.95;;;;;;;30.76;100.00;98419.91;4358644;32;20455;-68
2022/08/19 10:22:04;;;;;;;15.00;6.72;;;;;;;31.04;100.00;98451.63;4367747;32;20039;-68
2022/08/19 10:24:31;;;;;;;12.77;6.70;;;;;;;30.82;100.00;98416.72;4370052;32;20082;-77
2022/08/19 10:26:58;;;;;;;14.27;7.53;;;;;;;31.17;100.00;98398.38;4384159;32;20035;-69
2022/08/19 10:29:27;;;;;;;13.45;6.50;;;;;;;30.94;100.00;98417.09;4398683;32;20344;-68
2022/08/19 10:31:54;;;;;;;16.27;7.35;;;;;;;31.78;100.00;98437.78;4349949;32;20519;-68
2022/08/19 10:34:20;;;;;;;16.42;6.45;;;;;;;31.61;100.00;98452.59;4352179;33;20063;-77
2022/08/19 10:36:47;;;;;;;16.23;7.43;;;;;;;31.89;100.00;98445.28;4349255;32;20041;-68
2022/08/19 10:39:13;;;;;;;15.63;7.07;;;;;;;31.68;100.00;98427.53;4348601;32;20385;-68
2022/08/19 10:41:40;;;;;;;13.73;7.05;;;;;;;31.33;100.00;98441.19;4350913;32;20093;-70
2022/08/19 10:44:10;;;;;;;15.27;7.18;;;;;;;31.35;100.00;98440.78;4352718;32;20111;-71
2022/08/19 10:46:41;;;;;;;9.95;6.65;;;;;;;31.34;100.00;98447.56;4351027;32;20028;-79
2022/08/19 10:49:10;;;;;;;8.45;6.55;;;;;;;31.27;100.00;98453.13;4352167;32;20153;-69
2022/08/19 10:56:50;;;;;;;13.50;7.20;;;;;;;32.31;100.00;98447.00;4340525;32;20118;-71
2022/08/19 10:57:13;;;;;;;11.32;7.47;;;;;;;32.30;100.00;98448.19;4301994;33;20029;-69
2022/08/19 10:59:41;;;;;;;19.35;8.13;;;;;;;32.11;100.00;98443.97;4301461;33;20080;-71
2022/08/19 11:02:12;;;;;;;9.02;6.12;;;;;;;31.56;100.00;98397.38;4304762;33;20394;-78
2022/08/19 11:04:39;;;;;;;12.90;6.07;;;;;;;32.13;96.75;98432.44;4346344;33;20044;-70
2022/08/19 11:07:07;;;;;;;14.38;6.40;;;;;;;31.43;95.08;98439.56;4342988;33;20367;-70
2022/08/19 11:09:39;;;;;;;11.18;6.62;;;;;;;31.68;89.07;98410.84;4310587;33;20041;-70
2022/08/19 11:12:07;;;;;;;10.13;6.43;;;;;;;31.72;98.08;98417.19;4284284;33;20057;-73
2022/08/19 11:14:34;;;;;;;12.50;6.18;;;;;;;31.62;93.95;98395.75;4280935;33;20076;-70
2022/08/19 11:17:02;;;;;;;22.55;6.45;;;;;;;32.48;93.86;98386.75;4281210;33;20425;-70
2022/08/19 11:19:29;;;;;;;10.50;6.00;;;;;;;32.73;94.67;98424.75;4279895;33;20129;-70
2022/08/19 11:21:57;;;;;;;12.82;6.35;;;;;;;33.19;85.43;98414.28;4275736;33;20030;-77
2022/08/19 11:24:27;;;;;;;13.95;6.50;;;;;;;32.31;87.38;98412.78;4291620;33;20033;-70
2022/08/19 11:27:00;;;;;;;13.20;5.97;;;;;;;32.31;85.89;98401.63;4286674;33;20049;-70
2022/08/19 11:29:29;;;;;;;8.23;6.37;;;;;;;32.92;79.43;98406.63;4338448;32;20479;-71
2022/08/19 11:31:55;;;;;;;13.13;6.32;;;;;;;33.72;79.34;98392.50;4338628;33;20029;-70
2022/08/19 11:34:25;;;;;;;9.68;6.60;;;;;;;33.75;79.15;98400.03;4338473;33;20057;-70
2022/08/19 11:36:54;;;;;;;15.15;6.97;;;;;;;33.86;76.76;98372.75;4330508;33;20056;-71
2022/08/19 11:39:22;;;;;;;14.93;6.60;;;;;;;33.98;72.09;98369.31;4330355;33;20059;-70
2022/08/19 11:41:48;;;;;;;12.18;5.82;;;;;;;33.49;70.14;98377.22;4350328;32;20106;-77
2022/08/19 11:44:15;;;;;;;11.65;6.18;;;;;;;33.66;72.61;98392.13;4379855;32;20061;-71
2022/08/19 11:46:46;;;;;;;22.60;6.87;;;;;;;34.30;70.54;98401.53;4388489;32;20427;-70
2022/08/19 11:49:18;;;;;;;11.50;6.22;;;;;;;33.71;73.23;98405.66;4385849;32;20039;-70